Time;durP1;ratioP1;P1;durP2;ratioP2;P2;SDS_P1;SDS_P2;PMS_P1;PMS_P2;Temp;Humidity;BMP_temperature;BMP_pressure;BME280_temperature;BME280_humidity;BME280_pressure;Samples;Min_cycle;Max_cycle;Signal;HPM_P1;HPM_P2
2021/03/22 00:03:10;;;;;;;22.13;11.93;;;;;;;1.37;100.00;98474.75;4376097;81;28613;-83
2021/03/22 00:09:13;;;;;;;18.98;8.85;;;;;;;1.17;100.00;98485.07;4375970;81;43927;-82
2021/03/22 00:15:17;;;;;;;14.98;7.50;;;;;;;1.18;100.00;98488.87;4377226;81;28606;-82
2021/03/22 00:21:20;;;;;;;15.55;7.95;;;;;;;1.18;100.00;98493.33;4377496;81;28716;-83
2021/03/22 00:27:23;;;;;;;13.10;6.78;;;;;;;1.19;100.00;98493.64;4377435;81;28587;-82
2021/03/22 00:33:25;;;;;;;11.53;6.28;;;;;;;1.19;100.00;98501.59;4377730;81;28567;-82
2021/03/22 00:39:31;;;;;;;12.82;7.03;;;;;;;1.31;100.00;98508.58;4377173;81;28578;-82
2021/03/22 00:45:34;;;;;;;17.77;7.35;;;;;;;1.27;100.00;98505.47;4314194;80;28647;-82
2021/03/22 00:51:36;;;;;;;11.12;6.60;;;;;;;1.37;100.00;98498.58;4372753;81;28625;-83
2021/03/22 00:57:38;;;;;;;12.75;6.58;;;;;;;1.26;100.00;98503.83;4369810;81;28619;-82
2021/03/22 01:03:41;;;;;;;13.62;7.28;;;;;;;1.32;100.00;98508.41;4385553;81;28592;-82
2021/03/22 01:09:44;;;;;;;11.18;6.95;;;;;;;1.31;100.00;98510.73;4357645;81;43233;-82
2021/03/22 01:15:47;;;;;;;11.15;6.20;;;;;;;1.20;100.00;98508.56;4351026;81;28605;-83
2021/03/22 01:21:55;;;;;;;13.22;6.87;;;;;;;1.23;100.00;98512.16;4323326;81;28955;-83
2021/03/22 01:27:58;;;;;;;11.48;6.25;;;;;;;1.04;100.00;98525.42;4322281;82;43221;-82
2021/03/22 01:34:00;;;;;;;13.75;7.03;;;;;;;1.17;100.00;98527.44;4359082;81;43911;-82
2021/03/22 01:40:09;;;;;;;11.63;5.60;;;;;;;1.08;100.00;98542.09;4384985;81;43240;-81
2021/03/22 01:46:11;;;;;;;12.68;6.28;;;;;;;1.15;100.00;98533.42;4359552;80;43564;-80
2021/03/22 01:52:14;;;;;;;11.97;6.83;;;;;;;1.30;100.00;98543.53;4322669;82;28588;-82
2021/03/22 01:58:17;;;;;;;12.68;6.35;;;;;;;1.19;100.00;98552.73;4374881;80;43213;-82
2021/03/22 02:04:20;;;;;;;11.75;6.45;;;;;;;1.28;100.00;98550.81;4339973;81;28551;-85
2021/03/22 02:10:23;;;;;;;11.45;6.65;;;;;;;1.34;100.00;98550.58;4352362;82;28570;-85
2021/03/22 02:16:53;;;;;;;11.10;5.92;;;;;;;1.27;100.00;98553.15;4359368;81;28588;-85
2021/03/22 02:23:31;;;;;;;8.93;4.67;;;;;;;1.23;100.00;98547.91;4332555;82;28647;-86
2021/03/22 02:30:17;;;;;;;7.75;4.22;;;;;;;1.18;100.00;98546.30;4353222;82;28555;-85
2021/03/22 02:36:27;;;;;;;12.30;4.83;;;;;;;1.09;100.00;98559.64;4360128;82;28631;-86
2021/03/22 02:42:31;;;;;;;6.87;4.08;;;;;;;0.92;100.00;98571.39;4357014;82;28645;-85
2021/03/22 02:48:36;;;;;;;6.37;3.50;;;;;;;1.03;100.00;98575.41;4347097;82;28562;-86
2021/03/22 02:54:54;;;;;;;;;;;;;;;0.89;100.00;98583.67;4365418;82;28567;-85
2021/03/22 03:01:20;;;;;;;9.63;3.50;;;;;;;0.94;100.00;98582.61;4359107;82;42708;-85
2021/03/22 03:07:25;;;;;;;6.42;3.30;;;;;;;0.99;100.00;98595.31;4358778;82;41954;-85
2021/03/22 03:13:27;;;;;;;8.60;3.53;;;;;;;0.73;100.00;98600.00;4359406;82;36369;-85
2021/03/22 03:19:30;;;;;;;8.98;3.92;;;;;;;0.75;100.00;98618.36;4358094;81;42689;-85
2021/03/22 03:25:32;;;;;;;6.90;3.50;;;;;;;0.72;100.00;98623.98;4358958;82;42519;-84
2021/03/22 03:31:36;;;;;;;7.60;3.20;;;;;;;0.60;100.00;98627.05;4293726;82;28572;-85
2021/03/22 03:37:40;;;;;;;6.77;3.70;;;;;;;0.36;100.00;98631.51;4292982;82;28623;-85
2021/03/22 03:43:42;;;;;;;8.13;4.17;;;;;;;0.43;100.00;98637.44;4324848;82;42716;-85
2021/03/22 03:49:45;;;;;;;7.17;2.85;;;;;;;0.46;100.00;98647.66;4325817;82;41845;-85
2021/03/22 03:55:48;;;;;;;7.42;3.25;;;;;;;0.27;100.00;98649.73;4324699;82;28630;-84
2021/03/22 04:01:50;;;;;;;7.58;2.85;;;;;;;0.63;100.00;98656.30;4323795;82;41873;-86
2021/03/22 04:07:52;;;;;;;6.33;2.80;;;;;;;0.29;100.00;98661.48;4324549;82;28571;-83
2021/03/22 04:13:55;;;;;;;5.53;3.10;;;;;;;0.43;100.00;98667.34;4324034;81;43391;-85
2021/03/22 04:19:58;;;;;;;6.42;2.70;;;;;;;0.12;100.00;98678.25;4362573;81;28634;-87
2021/03/22 04:26:01;;;;;;;5.60;2.80;;;;;;;0.11;100.00;98685.86;4370772;81;43410;-86
2021/03/22 04:32:05;;;;;;;5.05;3.30;;;;;;;0.02;100.00;98692.17;4340808;81;43407;-85
2021/03/22 04:38:07;;;;;;;5.58;2.80;;;;;;;0.17;100.00;98698.89;4340373;81;43382;-86
2021/03/22 04:44:10;;;;;;;6.30;3.17;;;;;;;-0.06;100.00;98708.05;4399972;81;41844;-85
2021/03/22 04:50:18;;;;;;;7.22;3.10;;;;;;;0.23;100.00;98710.08;4399371;81;41852;-87
2021/03/22 04:56:22;;;;;;;8.05;3.30;;;;;;;0.10;100.00;98723.84;4399026;81;42707;-85
2021/03/22 05:02:24;;;;;;;8.68;3.62;;;;;;;-0.10;100.00;98728.70;4399219;81;42720;-85
2021/03/22 05:08:29;;;;;;;8.43;3.50;;;;;;;0.04;100.00;98725.02;4398999;81;42717;-86
2021/03/22 05:14:31;;;;;;;7.10;3.40;;;;;;;0.00;100.00;98732.50;4399178;81;42577;-86
2021/03/22 05:20:48;;;;;;;7.20;3.42;;;;;;;0.24;100.00;98745.30;4399075;80;42617;-84
2021/03/22 05:26:51;;;;;;;7.17;3.90;;;;;;;0.16;100.00;98744.83;4400050;81;42692;-85
2021/03/22 05:33:04;;;;;;;8.40;4.00;;;;;;;0.02;100.00;98759.58;4399819;81;42731;-83
2021/03/22 05:39:07;;;;;;;11.53;4.60;;;;;;;0.39;100.00;98763.91;4359680;81;43550;-84
2021/03/22 05:45:50;;;;;;;11.53;5.60;;;;;;;0.28;100.00;98775.67;4331322;81;43226;-84
2021/03/22 05:52:03;;;;;;;11.05;5.58;;;;;;;0.15;100.00;98783.33;4331314;82;43569;-83
2021/03/22 05:58:39;;;;;;;12.50;5.78;;;;;;;0.04;100.00;98789.78;4331427;81;43261;-82
2021/03/22 06:04:49;;;;;;;11.95;5.97;;;;;;;-0.05;100.00;98799.08;4346710;81;28551;-83
2021/03/22 06:10:55;;;;;;;9.48;5.47;;;;;;;0.11;100.00;98807.47;4369763;81;42973;-85
2021/03/22 06:17:11;;;;;;;10.18;4.47;;;;;;;0.01;100.00;98812.13;4372187;81;28599;-83
2021/03/22 06:23:31;;;;;;;10.80;4.53;;;;;;;-0.05;100.00;98833.44;4370889;81;43526;-83
2021/03/22 06:29:38;;;;;;;9.18;4.60;;;;;;;0.24;100.00;98822.78;4370469;81;42766;-83
2021/03/22 06:35:40;;;;;;;12.25;4.85;;;;;;;0.14;100.00;98818.19;4371589;81;43237;-83
2021/03/22 06:41:50;;;;;;;10.38;5.05;;;;;;;0.57;100.00;98823.67;4370964;81;43294;-86
2021/03/22 06:48:13;;;;;;;10.98;4.65;;;;;;;0.58;100.00;98826.67;4371496;81;43225;-84
2021/03/22 06:54:33;;;;;;;9.80;4.53;;;;;;;0.53;100.00;98835.92;4367191;81;42693;-85
2021/03/22 07:00:39;;;;;;;9.38;4.28;;;;;;;0.33;100.00;98830.70;4342354;81;42701;-85
2021/03/22 07:06:43;;;;;;;12.65;4.22;;;;;;;0.73;100.00;98843.46;4347977;81;43214;-86
2021/03/22 07:13:26;;;;;;;8.20;3.17;;;;;;;1.07;100.00;98848.91;4334560;81;42769;-87
2021/03/22 07:19:29;;;;;;;6.42;3.02;;;;;;;0.90;100.00;98867.22;4372914;81;28564;-84
2021/03/22 07:25:38;;;;;;;8.50;3.12;;;;;;;1.11;100.00;98867.45;4371623;81;42739;-83
2021/03/22 07:32:19;;;;;;;8.73;2.90;;;;;;;1.04;100.00;98870.45;4372036;81;42705;-84
2021/03/22 07:38:40;;;;;;;8.10;2.95;;;;;;;1.11;100.00;98884.66;4341728;81;28550;-86
2021/03/22 07:45:21;;;;;;;6.60;2.20;;;;;;;1.34;100.00;98894.46;4320650;82;28575;-84
2021/03/22 07:51:54;;;;;;;7.62;2.52;;;;;;;1.23;100.00;98885.59;4394133;81;41872;-86
2021/03/22 07:58:28;;;;;;;7.87;2.50;;;;;;;1.29;100.00;98901.28;4321164;82;28575;-83
2021/03/22 08:04:54;;;;;;;6.92;2.37;;;;;;;1.19;100.00;98894.86;4384017;81;42625;-83
2021/03/22 08:11:14;;;;;;;8.65;2.33;;;;;;;1.55;100.00;98894.81;4383642;81;28543;-83
2021/03/22 08:17:51;;;;;;;6.83;2.10;;;;;;;1.57;100.00;98902.12;4381265;81;28581;-82
2021/03/22 08:24:01;;;;;;;3.37;1.50;;;;;;;1.84;100.00;98902.57;4390879;81;28603;-81
2021/03/22 08:30:12;;;;;;;3.37;1.40;;;;;;;1.99;100.00;98892.84;4388705;81;28567;-83
2021/03/22 08:36:32;;;;;;;7.22;1.60;;;;;;;2.11;89.78;98907.00;4320301;81;43424;-86
2021/03/22 08:42:52;;;;;;;4.10;1.35;;;;;;;1.99;90.64;98914.06;4273059;82;28670;-91
2021/03/22 08:48:55;;;;;;;3.65;1.32;;;;;;;2.15;87.29;98921.06;4351106;82;28568;-84
2021/03/22 08:55:08;;;;;;;2.87;1.10;;;;;;;2.19;83.67;98923.66;4362787;82;43213;-84
2021/03/22 09:01:31;;;;;;;5.25;1.70;;;;;;;2.20;83.59;98931.13;4363123;82;28544;-88
2021/03/22 09:07:37;;;;;;;3.98;0.93;;;;;;;2.30;86.57;98919.77;4345772;80;28590;-86
2021/03/22 09:13:41;;;;;;;4.35;0.90;;;;;;;2.39;78.30;98928.47;4322526;82;28566;-89
2021/03/22 09:19:45;;;;;;;4.25;1.30;;;;;;;2.55;80.78;98936.77;4292590;82;43224;-86
2021/03/22 09:25:56;;;;;;;2.15;0.68;;;;;;;2.69;82.20;98936.95;4304072;81;28538;-86
2021/03/22 09:32:00;;;;;;;4.03;0.80;;;;;;;2.66;70.98;98943.47;4300096;81;28552;-86
2021/03/22 09:38:34;;;;;;;2.72;0.78;;;;;;;2.91;77.55;98929.39;4333822;80;28547;-87
2021/03/22 09:44:57;;;;;;;2.10;0.70;;;;;;;2.99;69.06;98939.61;4279972;81;28578;-87
2021/03/22 09:51:08;;;;;;;4.30;1.02;;;;;;;3.31;65.18;98937.55;4287824;81;28557;-84
2021/03/22 09:57:36;;;;;;;4.20;1.10;;;;;;;3.72;69.97;98930.86;4292513;81;28542;-84
2021/03/22 10:03:44;;;;;;;5.10;0.80;;;;;;;4.03;65.71;98933.72;4278134;81;28589;-85
2021/03/22 10:09:56;;;;;;;3.40;0.98;;;;;;;4.26;63.28;98922.83;4319218;81;28934;-89
2021/03/22 10:16:19;;;;;;;1.82;0.57;;;;;;;4.33;69.59;98920.25;4294076;81;29132;-87
2021/03/22 10:22:22;;;;;;;2.67;0.78;;;;;;;3.69;52.67;98926.73;4292626;81;28591;-86
2021/03/22 10:28:25;;;;;;;1.80;0.53;;;;;;;3.89;56.26;98922.93;4301320;82;28583;-87
2021/03/22 10:34:51;;;;;;;3.67;1.10;;;;;;;3.98;49.94;98923.64;4303182;81;28616;-85
2021/03/22 10:40:56;;;;;;;2.85;0.85;;;;;;;4.44;48.86;98911.73;4291998;81;28587;-87
2021/03/22 10:47:15;;;;;;;1.45;0.60;;;;;;;4.74;46.11;98908.84;4383381;80;45591;-86
2021/03/22 10:53:17;;;;;;;2.60;0.50;;;;;;;4.71;45.88;98902.56;4385513;80;28551;-85
2021/03/22 10:59:29;;;;;;;5.62;0.70;;;;;;;4.35;45.60;98908.05;4358123;80;28548;-87
2021/03/22 11:05:43;;;;;;;3.72;0.98;;;;;;;4.14;47.50;98922.55;4350281;80;28558;-89
2021/03/22 11:11:46;;;;;;;1.22;0.53;;;;;;;3.70;60.40;98928.91;4347485;80;28556;-81
2021/03/22 11:17:50;;;;;;;1.67;0.70;;;;;;;3.22;75.34;98958.11;4356453;80;28595;-83
2021/03/22 11:23:57;;;;;;;2.45;0.85;;;;;;;3.04;90.44;98942.03;4351900;81;28544;-84
2021/03/22 11:30:05;;;;;;;6.33;0.70;;;;;;;3.79;71.22;98929.08;4381855;80;28598;-84
2021/03/22 11:36:18;;;;;;;2.47;0.57;;;;;;;4.33;63.35;98928.23;4369370;81;28572;-84
2021/03/22 11:43:00;;;;;;;3.05;0.70;;;;;;;4.46;60.65;98928.33;4361588;80;28597;-83
2021/03/22 11:49:02;;;;;;;2.65;0.80;;;;;;;4.58;61.75;98934.44;4281282;81;28596;-84
2021/03/22 11:55:10;;;;;;;5.17;1.30;;;;;;;4.51;62.60;98940.22;4380572;80;28573;-82
2021/03/22 12:01:28;;;;;;;7.30;1.40;;;;;;;3.86;83.59;98941.13;4391698;79;28627;-83
2021/03/22 12:07:41;;;;;;;2.27;0.80;;;;;;;3.98;90.93;98932.12;4366134;79;28579;-83
2021/03/22 12:13:46;;;;;;;3.80;1.15;;;;;;;4.58;83.36;98926.45;4369160;79;28596;-85
2021/03/22 12:19:48;;;;;;;4.33;1.82;;;;;;;5.26;72.37;98920.47;4369085;80;28607;-86
2021/03/22 12:25:50;;;;;;;1.82;0.85;;;;;;;5.29;67.15;98916.56;4366505;80;28578;-82
2021/03/22 12:31:53;;;;;;;3.42;1.15;;;;;;;5.52;64.52;98915.39;4395519;79;28902;-84
2021/03/22 12:37:56;;;;;;;3.00;1.10;;;;;;;5.78;63.39;98917.33;4395203;79;28560;-83
2021/03/22 12:44:00;;;;;;;2.27;1.10;;;;;;;5.63;50.79;98908.66;4369824;80;28595;-78
2021/03/22 12:50:26;;;;;;;2.27;1.10;;;;;;;5.77;49.87;98911.66;4363520;80;28553;-83
2021/03/22 12:56:31;;;;;;;4.08;1.17;;;;;;;5.64;48.52;98904.97;4374950;80;28927;-81
2021/03/22 13:02:35;;;;;;;4.00;1.00;;;;;;;5.65;46.17;98905.27;4360246;80;28607;-81
2021/03/22 13:08:37;;;;;;;3.85;1.20;;;;;;;5.89;47.34;98899.88;4383283;80;28610;-81
2021/03/22 13:14:40;;;;;;;3.67;1.30;;;;;;;5.44;47.88;98906.58;4375175;80;28607;-81
2021/03/22 13:20:44;;;;;;;4.45;1.50;;;;;;;4.91;49.00;98925.83;4359258;80;28582;-81
2021/03/22 13:26:47;;;;;;;4.28;1.02;;;;;;;5.08;51.45;98926.84;4377972;80;28556;-82
2021/03/22 13:32:52;;;;;;;3.62;1.20;;;;;;;5.24;50.30;98931.01;4380165;80;28586;-77
2021/03/22 13:38:55;;;;;;;3.17;1.15;;;;;;;5.03;48.60;98919.44;4380641;80;28539;-80
2021/03/22 13:44:57;;;;;;;3.00;1.00;;;;;;;5.48;49.46;98928.33;4374822;80;28588;-82
2021/03/22 13:51:00;;;;;;;2.55;0.93;;;;;;;5.69;48.68;98926.02;4388300;80;28567;-81
2021/03/22 13:57:02;;;;;;;2.67;0.78;;;;;;;5.29;47.00;98924.06;4385251;80;28565;-84
2021/03/22 14:03:05;;;;;;;3.45;0.90;;;;;;;5.09;45.26;98939.14;4362773;80;28630;-82
2021/03/22 14:09:08;;;;;;;3.25;1.07;;;;;;;4.86;45.11;98925.61;4358534;80;28568;-80
2021/03/22 14:15:24;;;;;;;5.00;1.37;;;;;;;5.22;45.40;98925.87;4341562;81;28546;-83
2021/03/22 14:21:27;;;;;;;5.25;1.45;;;;;;;5.24;46.85;98917.68;4371785;80;28623;-78
2021/03/22 14:27:29;;;;;;;4.42;1.50;;;;;;;5.35;46.58;98914.94;4333151;81;28599;-80
2021/03/22 14:33:31;;;;;;;4.00;1.55;;;;;;;5.26;46.57;98916.97;4312210;81;28546;-76
2021/03/22 14:39:35;;;;;;;3.80;1.30;;;;;;;5.25;47.79;98923.32;4295274;81;28940;-83
2021/03/22 14:45:37;;;;;;;5.92;1.60;;;;;;;5.35;48.26;98925.10;4338744;80;28630;-81
2021/03/22 14:51:40;;;;;;;3.27;1.27;;;;;;;5.05;47.84;98928.05;4347763;81;28546;-82
2021/03/22 14:57:43;;;;;;;5.00;1.20;;;;;;;4.77;48.28;98935.58;4338434;80;28595;-79
2021/03/22 15:03:46;;;;;;;3.85;1.60;;;;;;;4.70;51.77;98956.84;4343005;81;28553;-77
2021/03/22 15:09:49;;;;;;;3.75;1.17;;;;;;;4.87;52.13;98956.55;4325738;80;28615;-83
2021/03/22 15:15:52;;;;;;;5.65;1.62;;;;;;;4.40;53.14;98953.05;4354791;81;28657;-85
2021/03/22 15:21:57;;;;;;;4.85;1.75;;;;;;;4.38;55.39;98958.27;4352193;80;28669;-83
2021/03/22 15:28:01;;;;;;;4.42;1.77;;;;;;;4.26;56.46;98960.62;4356874;80;28590;-83
2021/03/22 15:34:05;;;;;;;6.03;2.42;;;;;;;4.43;61.20;98978.47;4329839;80;28620;-80
2021/03/22 15:40:10;;;;;;;5.83;2.35;;;;;;;4.22;66.67;98977.47;4341256;80;28555;-81
2021/03/22 15:46:13;;;;;;;7.60;2.60;;;;;;;4.05;67.71;98975.06;4340538;80;28613;-83
2021/03/22 15:52:16;;;;;;;8.95;2.83;;;;;;;3.96;68.84;98964.25;4353570;80;28542;-82
2021/03/22 15:58:19;;;;;;;7.20;2.87;;;;;;;4.17;68.83;98975.91;4348482;80;28602;-82
2021/03/22 16:04:21;;;;;;;8.83;3.08;;;;;;;4.11;70.07;98973.99;4357432;80;28595;-82
2021/03/22 16:10:26;;;;;;;6.90;2.72;;;;;;;4.19;70.51;98981.33;4345240;80;28581;-83
2021/03/22 16:16:28;;;;;;;9.70;2.65;;;;;;;4.13;67.94;98993.25;4352996;81;28967;-82
2021/03/22 16:22:31;;;;;;;6.75;2.40;;;;;;;4.05;66.73;99006.98;4352031;80;28626;-79
2021/03/22 16:28:33;;;;;;;7.40;2.47;;;;;;;4.09;64.13;99006.11;4347682;80;28601;-85
2021/03/22 16:34:36;;;;;;;5.95;2.40;;;;;;;4.09;61.63;99009.29;4362704;81;28596;-84
2021/03/22 16:40:42;;;;;;;6.37;2.70;;;;;;;3.92;62.85;99026.81;4360902;81;28571;-82
2021/03/22 16:46:44;;;;;;;6.87;2.40;;;;;;;3.68;65.54;99042.09;4411118;80;28555;-83
2021/03/22 16:52:48;;;;;;;7.40;2.83;;;;;;;3.48;68.63;99037.84;4369241;80;28568;-83
2021/03/22 16:58:52;;;;;;;7.75;2.83;;;;;;;3.40;70.61;99040.62;4417812;79;28603;-84
2021/03/22 17:04:54;;;;;;;6.03;2.30;;;;;;;3.20;78.98;99059.77;4396362;80;28566;-81
2021/03/22 17:11:00;;;;;;;6.72;1.92;;;;;;;2.96;86.40;99070.94;4392041;80;28672;-80
2021/03/22 17:17:02;;;;;;;5.47;2.45;;;;;;;2.95;84.95;99075.93;4389615;80;28610;-80
2021/03/22 17:23:06;;;;;;;5.72;2.58;;;;;;;2.82;84.96;99083.70;4407173;80;28592;-80
2021/03/22 17:29:10;;;;;;;4.22;1.80;;;;;;;2.67;85.66;99093.78;4389478;80;28575;-81
2021/03/22 17:35:14;;;;;;;6.35;2.65;;;;;;;2.51;87.07;99092.89;4336864;81;28653;-81
2021/03/22 17:41:16;;;;;;;6.17;2.65;;;;;;;2.37;88.09;99109.07;4303375;81;28567;-82
2021/03/22 17:47:18;;;;;;;5.72;2.37;;;;;;;2.25;89.44;99121.09;4330033;80;28655;-81
2021/03/22 17:53:21;;;;;;;9.30;2.50;;;;;;;2.13;90.36;99122.50;4367490;80;28637;-82
2021/03/22 17:59:24;;;;;;;6.92;2.80;;;;;;;2.00;92.37;99133.17;4351958;81;28613;-81
2021/03/22 18:05:32;;;;;;;8.45;2.47;;;;;;;1.93;91.80;99137.50;4366384;80;28573;-82
2021/03/22 18:11:35;;;;;;;8.50;3.05;;;;;;;1.93;92.68;99141.00;4362471;80;28547;-80
2021/03/22 18:17:37;;;;;;;5.70;2.30;;;;;;;1.81;95.70;99156.92;4344592;80;28613;-82
2021/03/22 18:23:41;;;;;;;10.28;2.62;;;;;;;1.71;95.51;99158.95;4371300;80;28602;-79
2021/03/22 18:29:43;;;;;;;9.63;4.12;;;;;;;1.47;97.63;99168.63;4391568;80;28639;-80
2021/03/22 18:35:49;;;;;;;17.70;7.08;;;;;;;1.35;100.00;99176.92;4314079;80;28595;-80
2021/03/22 18:41:52;;;;;;;18.00;7.67;;;;;;;1.33;100.00;99180.73;4357525;81;28581;-81
2021/03/22 18:47:54;;;;;;;18.17;7.30;;;;;;;1.24;100.00;99194.48;4356056;81;28591;-78
2021/03/22 18:53:57;;;;;;;16.93;7.05;;;;;;;1.24;100.00;99193.16;4360659;80;28613;-80
2021/03/22 19:00:01;;;;;;;18.17;7.00;;;;;;;1.05;100.00;99208.39;4358469;81;28575;-78
2021/03/22 19:06:06;;;;;;;19.65;7.47;;;;;;;0.89;100.00;99218.98;4368731;80;43962;-79
2021/03/22 19:12:10;;;;;;;20.75;7.85;;;;;;;0.66;100.00;99223.07;4354238;80;28951;-81
2021/03/22 19:18:13;;;;;;;21.00;8.58;;;;;;;0.57;100.00;99225.36;4355056;80;28594;-80
2021/03/22 19:24:16;;;;;;;17.70;8.08;;;;;;;0.26;100.00;99237.83;4353551;80;43926;-80
2021/03/22 19:30:21;;;;;;;21.50;8.10;;;;;;;0.20;100.00;99243.26;4485417;78;43906;-81
2021/03/22 19:36:24;;;;;;;;;;;;;;;0.11;100.00;99251.66;4505327;78;28633;-79
2021/03/22 19:42:27;;;;;;;23.38;8.88;;;;;;;-0.03;100.00;99250.42;4476629;79;43981;-80
2021/03/22 19:48:29;;;;;;;26.50;10.78;;;;;;;-0.10;100.00;99255.99;4513408;78;43343;-77
2021/03/22 19:54:31;;;;;;;27.00;11.43;;;;;;;-0.36;100.00;99261.28;4519708;78;43222;-81
2021/03/22 20:00:33;;;;;;;28.32;11.08;;;;;;;-0.32;100.00;99263.45;4508594;79;43407;-80
2021/03/22 20:06:35;;;;;;;33.00;12.15;;;;;;;-0.37;100.00;99266.23;4503932;78;44073;-83
2021/03/22 20:12:38;;;;;;;32.85;13.03;;;;;;;-0.40;100.00;99271.32;4504438;78;28550;-81
2021/03/22 20:18:40;;;;;;;36.98;15.03;;;;;;;-0.45;100.00;99281.53;4476067;78;44429;-80
2021/03/22 20:24:44;;;;;;;36.77;14.28;;;;;;;-0.49;100.00;99281.02;4390134;80;44487;-81
2021/03/22 20:30:47;;;;;;;38.98;15.13;;;;;;;-0.40;100.00;99276.61;4347828;80;44423;-78
2021/03/22 20:36:50;;;;;;;37.85;14.85;;;;;;;-0.38;100.00;99277.78;4357947;80;44455;-80
2021/03/22 20:42:53;;;;;;;39.70;16.37;;;;;;;-0.31;100.00;99292.05;4364284;80;44447;-79
2021/03/22 20:48:56;;;;;;;37.65;15.38;;;;;;;-0.22;100.00;99291.09;4405345;79;44506;-79
2021/03/22 20:54:57;;;;;;;41.00;16.85;;;;;;;-0.26;100.00;99295.04;4395481;80;44427;-78
2021/03/22 21:00:59;;;;;;;46.15;18.98;;;;;;;-0.25;100.00;99299.34;4383485;81;43745;-77
2021/03/22 21:07:02;;;;;;;59.93;21.87;;;;;;;-0.40;100.00;99292.97;4406874;80;44107;-79
2021/03/22 21:13:09;;;;;;;46.18;20.77;;;;;;;-0.33;100.00;99294.83;4321535;81;43765;-79
2021/03/22 21:19:11;;;;;;;53.15;21.70;;;;;;;-0.40;100.00;99287.69;4387016;80;44118;-81
2021/03/22 21:25:14;;;;;;;51.40;21.00;;;;;;;-0.39;100.00;99292.79;4410430;80;43573;-77
2021/03/22 21:31:16;;;;;;;58.08;23.70;;;;;;;-0.36;100.00;99293.83;4402810;80;44074;-80
2021/03/22 21:37:19;;;;;;;66.90;25.35;;;;;;;-0.39;100.00;99298.08;4407493;80;42880;-77
2021/03/22 21:43:23;;;;;;;74.80;28.50;;;;;;;-0.36;100.00;99298.27;4398321;79;44083;-77
2021/03/22 21:49:26;;;;;;;70.90;29.80;;;;;;;-0.39;100.00;99295.94;4397060;80;28583;-79
2021/03/22 21:55:31;;;;;;;66.37;27.67;;;;;;;-0.51;100.00;99294.02;4340880;80;43410;-80
2021/03/22 22:01:34;;;;;;;69.30;27.15;;;;;;;-0.55;100.00;99301.42;4355286;80;44130;-81
2021/03/22 22:07:38;;;;;;;72.60;29.32;;;;;;;-0.62;100.00;99306.99;4362003;81;44084;-76
2021/03/22 22:13:42;;;;;;;63.02;28.23;;;;;;;-0.56;100.00;99307.69;4348266;80;43445;-77
2021/03/22 22:19:46;;;;;;;67.40;27.50;;;;;;;-0.55;100.00;99310.66;4357955;80;44100;-77
2021/03/22 22:25:51;;;;;;;66.33;27.98;;;;;;;-0.55;100.00;99310.66;4355588;80;43785;-77
2021/03/22 22:31:54;;;;;;;64.22;28.55;;;;;;;-0.53;100.00;99306.56;4367605;80;28537;-76
2021/03/22 22:37:58;;;;;;;64.35;28.80;;;;;;;-0.51;100.00;99316.00;4336593;80;43417;-77
2021/03/22 22:44:00;;;;;;;66.15;27.30;;;;;;;-0.49;100.00;99315.35;4380055;80;43436;-76
2021/03/22 22:50:05;;;;;;;71.07;29.98;;;;;;;-0.41;100.00;99317.22;4299207;81;44105;-76
2021/03/22 22:56:08;;;;;;;62.75;28.75;;;;;;;-0.35;100.00;99323.22;4307365;81;43404;-76
2021/03/22 23:02:10;;;;;;;68.20;29.27;;;;;;;-0.27;100.00;99328.22;4290808;81;44128;-77
2021/03/22 23:08:20;;;;;;;66.82;27.75;;;;;;;-0.26;100.00;99335.16;4289773;81;44134;-78
2021/03/22 23:14:22;;;;;;;69.95;29.63;;;;;;;-0.23;100.00;99329.08;4337352;80;44135;-77
2021/03/22 23:20:28;;;;;;;64.87;28.50;;;;;;;-0.03;100.00;99331.53;4390188;80;43444;-76
2021/03/22 23:26:31;;;;;;;66.42;27.87;;;;;;;0.09;100.00;99336.08;4374643;80;28614;-76
2021/03/22 23:32:33;;;;;;;71.53;29.63;;;;;;;0.10;100.00;99343.84;4389403;80;44084;-77
2021/03/22 23:38:36;;;;;;;73.92;28.95;;;;;;;0.18;100.00;99347.05;4330115;80;44091;-77
2021/03/22 23:44:37;;;;;;;73.87;31.15;;;;;;;0.17;100.00;99348.03;4314539;81;44132;-76
2021/03/22 23:50:45;;;;;;;69.53;30.05;;;;;;;0.14;100.00;99348.33;4389038;80;44220;-76
2021/03/22 23:56:47;;;;;;;81.67;32.78;;;;;;;0.21;100.00;99353.34;4369354;80;43061;-76
